createdAt,value
2022-08-23T00:00:32.291Z,34.35
2022-08-23T00:03:35.471Z,33.17
2022-08-23T00:06:38.449Z,32.38
2022-08-23T00:09:40.854Z,33.83
2022-08-23T00:12:45.011Z,33.67
2022-08-23T00:15:47.083Z,28.23
2022-08-23T00:18:49.579Z,30.80
2022-08-23T00:21:54.949Z,32.53
2022-08-23T00:24:57.086Z,28.80
2022-08-23T00:27:59.608Z,32.60
2022-08-23T00:31:01.932Z,30.63
2022-08-23T00:34:04.172Z,26.73
2022-08-23T00:37:08.666Z,26.35
2022-08-23T00:40:13.974Z,30.08
2022-08-23T00:43:37.127Z,27.50
2022-08-23T00:47:06.776Z,23.88
2022-08-23T00:50:49.336Z,21.75
2022-08-23T00:53:55.762Z,22.95
2022-08-23T00:57:01.672Z,28.08
2022-08-23T01:00:08.036Z,22.10
2022-08-23T01:03:12.387Z,24.42
2022-08-23T01:06:17.044Z,22.08
2022-08-23T01:09:21.674Z,16.52
2022-08-23T01:12:39.692Z,16.30
2022-08-23T01:15:48.059Z,9.50
2022-08-23T01:18:51.838Z,14.93
2022-08-23T01:22:14.689Z,16.40
2022-08-23T01:25:21.647Z,16.02
2022-08-23T01:28:25.222Z,10.80
2022-08-23T01:31:27.513Z,14.50
2022-08-23T01:34:29.856Z,9.63
2022-08-23T01:37:37.118Z,11.85
2022-08-23T01:40:40.487Z,9.77
2022-08-23T01:43:42.613Z,14.82
2022-08-23T01:46:47.394Z,11.45
2022-08-23T01:49:49.509Z,15.05
2022-08-23T01:52:52.315Z,7.25
2022-08-23T01:55:56.578Z,8.73
2022-08-23T01:58:59.824Z,8.20
2022-08-23T02:02:07.516Z,16.13
2022-08-23T02:05:10.540Z,12.07
2022-08-23T02:08:46.419Z,15.48
2022-08-23T02:11:49.874Z,12.65
2022-08-23T02:14:52.056Z,8.07
2022-08-23T02:18:00.481Z,18.85
2022-08-23T02:21:04.580Z,11.55
2022-08-23T02:24:14.123Z,9.95
2022-08-23T02:27:17.330Z,11.00
2022-08-23T02:30:20.660Z,7.60
2022-08-23T02:33:22.946Z,17.30
2022-08-23T02:36:25.406Z,12.45
2022-08-23T02:39:28.697Z,6.25
2022-08-23T02:42:31.114Z,7.63
2022-08-23T02:45:35.160Z,7.32
2022-08-23T02:48:37.779Z,13.02
2022-08-23T02:51:41.800Z,11.93
2022-08-23T02:54:44.555Z,11.13
2022-08-23T02:57:46.921Z,15.63
2022-08-23T03:00:50.311Z,11.13
2022-08-23T03:03:54.059Z,9.63
2022-08-23T03:06:56.414Z,11.23
2022-08-23T03:09:59.215Z,12.38
2022-08-23T03:13:02.946Z,14.02
2022-08-23T03:16:05.285Z,7.85
2022-08-23T03:19:07.669Z,10.43
2022-08-23T03:22:10.099Z,16.70
2022-08-23T03:25:12.576Z,10.85
2022-08-23T03:28:47.682Z,13.65
2022-08-23T03:31:51.756Z,8.45
2022-08-23T03:34:56.957Z,6.20
2022-08-23T03:37:59.552Z,6.68
2022-08-23T03:41:02.031Z,8.55
2022-08-23T03:44:05.328Z,8.15
2022-08-23T03:47:11.029Z,6.50
2022-08-23T03:50:16.398Z,9.93
2022-08-23T03:53:19.070Z,7.35
2022-08-23T03:56:24.292Z,10.20
2022-08-23T03:59:27.996Z,11.45
2022-08-23T04:02:30.242Z,11.20
2022-08-23T04:05:32.434Z,12.63
2022-08-23T04:08:40.352Z,11.80
2022-08-23T04:11:43.372Z,9.85
2022-08-23T04:14:45.876Z,7.60
2022-08-23T04:17:49.868Z,8.38
2022-08-23T04:20:52.896Z,13.60
2022-08-23T04:23:58.016Z,9.10
2022-08-23T04:27:00.310Z,11.02
2022-08-23T04:30:03.051Z,6.47
2022-08-23T04:33:09.953Z,19.08
2022-08-23T04:36:13.963Z,16.05
2022-08-23T04:39:16.912Z,8.27
2022-08-23T04:42:21.738Z,8.45
2022-08-23T04:45:27.258Z,6.93
2022-08-23T04:48:29.841Z,6.70
2022-08-23T04:51:32.392Z,10.63
2022-08-23T04:54:34.651Z,5.57
2022-08-23T04:58:03.117Z,10.00
2022-08-23T05:01:11.095Z,8.75
2022-08-23T05:04:14.545Z,7.22
2022-08-23T05:07:17.245Z,7.85
2022-08-23T05:10:20.158Z,4.50
2022-08-23T05:13:26.458Z,8.95
2022-08-23T05:16:28.709Z,6.40
2022-08-23T05:19:47.000Z,12.98
2022-08-23T05:22:50.716Z,6.88
2022-08-23T05:26:04.245Z,10.65
2022-08-23T05:29:11.005Z,10.60
2022-08-23T05:32:19.164Z,12.63
2022-08-23T05:35:21.882Z,12.93
2022-08-23T05:38:25.661Z,5.50
2022-08-23T05:41:37.888Z,14.13
2022-08-23T05:44:45.385Z,10.27
2022-08-23T05:47:47.858Z,11.40
2022-08-23T05:51:25.371Z,3.58
2022-08-23T05:54:28.479Z,11.30
2022-08-23T05:58:09.199Z,8.68
2022-08-23T06:01:12.091Z,9.20
2022-08-23T06:04:15.755Z,9.20
2022-08-23T06:07:19.916Z,7.05
2022-08-23T06:10:22.405Z,8.45
2022-08-23T06:13:39.267Z,8.20
2022-08-23T06:16:44.686Z,5.32
2022-08-23T06:19:48.139Z,10.57
2022-08-23T06:22:59.906Z,8.93
2022-08-23T06:26:02.381Z,8.02
2022-08-23T06:29:13.717Z,7.38
2022-08-23T06:32:16.228Z,6.32
2022-08-23T06:35:41.846Z,9.18
2022-08-23T06:38:51.062Z,14.02
2022-08-23T06:45:39.981Z,13.70
2022-08-23T06:48:44.036Z,15.07
2022-08-23T06:51:51.247Z,15.93
2022-08-23T06:55:02.957Z,23.80
2022-08-23T06:58:23.902Z,16.52
2022-08-23T07:01:51.111Z,12.40
2022-08-23T07:05:01.353Z,8.82
2022-08-23T07:08:24.837Z,11.68
2022-08-23T07:11:33.160Z,12.65
2022-08-23T07:14:37.468Z,19.70
2022-08-23T07:17:39.955Z,10.45
2022-08-23T07:20:42.285Z,19.15
2022-08-23T07:23:46.617Z,21.40
2022-08-23T07:26:52.322Z,11.93
2022-08-23T07:29:54.869Z,16.05
2022-08-23T07:32:56.968Z,7.75
2022-08-23T07:36:03.393Z,17.67
2022-08-23T07:39:07.522Z,19.42
2022-08-23T07:42:23.857Z,16.50
2022-08-23T07:45:29.650Z,17.10
2022-08-23T07:48:53.072Z,23.15
2022-08-23T07:52:02.677Z,22.67
2022-08-23T07:55:05.537Z,22.73
2022-08-23T07:58:26.888Z,30.85
2022-08-23T08:02:04.076Z,27.35
2022-08-23T08:05:07.928Z,17.73
2022-08-23T08:08:11.160Z,23.92
2022-08-23T08:11:16.531Z,20.10
2022-08-23T08:14:18.819Z,31.58
2022-08-23T08:17:27.616Z,28.35
2022-08-23T08:21:13.798Z,35.10
2022-08-23T08:24:42.869Z,31.15
2022-08-23T08:27:48.376Z,30.50
2022-08-23T08:30:50.712Z,38.10
2022-08-23T08:33:53.380Z,33.80
2022-08-23T08:36:58.959Z,36.90
2022-08-23T08:40:02.823Z,21.50
2022-08-23T08:43:39.876Z,24.17
2022-08-23T08:46:48.059Z,21.50
2022-08-23T08:50:26.834Z,28.90
2022-08-23T08:53:42.025Z,24.42
2022-08-23T08:56:52.717Z,42.03
2022-08-23T09:00:06.942Z,35.20
2022-08-23T09:03:20.636Z,28.30
2022-08-23T09:06:51.879Z,33.95
2022-08-23T09:10:15.133Z,39.13
2022-08-23T09:13:56.533Z,36.58
2022-08-23T09:17:05.593Z,25.88
2022-08-23T09:20:10.624Z,37.85
2022-08-23T09:23:35.784Z,29.23
2022-08-23T09:26:38.248Z,40.28
2022-08-23T09:29:52.960Z,35.53
2022-08-23T09:32:56.222Z,34.22
2022-08-23T09:36:15.402Z,37.45
2022-08-23T09:39:30.927Z,42.42
2022-08-23T09:42:39.814Z,46.45
2022-08-23T09:45:49.174Z,44.92
2022-08-23T09:48:58.955Z,39.65
2022-08-23T09:52:26.807Z,39.38
2022-08-23T09:55:37.345Z,25.70
2022-08-23T09:58:47.216Z,50.70
2022-08-23T10:01:59.616Z,28.40
2022-08-23T10:05:02.240Z,47.08
2022-08-23T10:08:10.320Z,37.38
2022-08-23T10:11:31.449Z,32.85
2022-08-23T10:14:34.495Z,32.88
2022-08-23T10:17:50.936Z,29.63
2022-08-23T10:20:58.938Z,40.55
2022-08-23T10:24:04.412Z,40.35
2022-08-23T10:27:40.570Z,52.38
2022-08-23T10:30:56.677Z,36.75
2022-08-23T10:34:17.542Z,13.48
2022-08-23T10:37:54.797Z,58.15
2022-08-23T10:41:35.742Z,42.15
2022-08-23T10:44:54.401Z,22.63
2022-08-23T10:48:00.603Z,40.90
2022-08-23T10:51:09.459Z,33.90
2022-08-23T10:54:35.098Z,24.63
2022-08-23T10:57:46.441Z,37.75
2022-08-23T11:00:51.700Z,28.70
2022-08-23T11:04:03.454Z,29.50
2022-08-23T11:07:30.393Z,35.65
2022-08-23T11:10:39.559Z,39.28
2022-08-23T11:13:54.716Z,39.42
2022-08-23T11:17:03.247Z,34.45
2022-08-23T11:20:09.997Z,41.00
2022-08-23T11:23:14.836Z,31.08
2022-08-23T11:26:22.756Z,49.60
2022-08-23T11:32:50.255Z,46.55
2022-08-23T11:36:21.896Z,34.17
2022-08-23T11:39:25.403Z,55.95
2022-08-23T11:42:37.536Z,56.38
2022-08-23T11:45:46.593Z,43.10
2022-08-23T11:49:10.745Z,33.70
2022-08-23T11:52:46.623Z,44.70
2022-08-23T11:56:18.924Z,44.85
2022-08-23T11:59:21.224Z,48.20
2022-08-23T12:02:53.190Z,41.60
2022-08-23T12:05:55.540Z,54.85
2022-08-23T12:09:03.506Z,39.10
2022-08-23T12:12:39.419Z,59.35
2022-08-23T12:16:16.645Z,34.10
2022-08-23T12:19:34.033Z,34.78
2022-08-23T12:23:05.953Z,38.97
2022-08-23T12:26:14.220Z,38.90
2022-08-23T12:33:05.283Z,37.63
2022-08-23T12:36:52.244Z,37.33
2022-08-23T12:39:58.409Z,45.33
2022-08-23T12:43:17.453Z,40.10
2022-08-23T12:46:43.845Z,38.05
2022-08-23T12:50:00.534Z,38.30
2022-08-23T12:53:12.550Z,50.83
2022-08-23T12:56:19.870Z,63.60
2022-08-23T12:59:36.769Z,43.95
2022-08-23T13:02:39.040Z,43.25
2022-08-23T13:05:46.219Z,54.60
2022-08-23T13:09:08.393Z,30.98
2022-08-23T13:12:11.500Z,39.40
2022-08-23T13:15:51.115Z,32.25
2022-08-23T13:18:53.790Z,38.88
2022-08-23T13:22:12.486Z,44.28
2022-08-23T13:28:34.195Z,29.83
2022-08-23T13:32:03.067Z,39.90
2022-08-23T13:35:33.992Z,51.10
2022-08-23T13:38:36.753Z,57.70
2022-08-23T13:41:39.381Z,45.55
2022-08-23T13:44:43.254Z,45.33
2022-08-23T13:47:52.013Z,37.97
2022-08-23T13:50:54.163Z,33.95
2022-08-23T13:53:58.589Z,35.47
2022-08-23T13:57:03.346Z,54.20
2022-08-23T14:00:09.288Z,30.15
2022-08-23T14:03:14.150Z,48.00
2022-08-23T14:06:16.319Z,55.33
2022-08-23T14:09:18.732Z,54.72
2022-08-23T14:12:29.577Z,35.30
2022-08-23T14:22:17.837Z,36.72
2022-08-23T14:25:20.632Z,31.02
2022-08-23T14:28:26.595Z,46.00
2022-08-23T14:31:32.349Z,49.65
2022-08-23T14:34:34.730Z,44.65
2022-08-23T14:41:03.437Z,49.58
2022-08-23T14:44:06.532Z,47.25
2022-08-23T14:47:08.685Z,36.95
2022-08-23T14:50:13.358Z,58.58
2022-08-23T14:53:17.876Z,37.08
2022-08-23T14:56:21.748Z,52.10
2022-08-23T14:59:24.077Z,47.45
2022-08-23T15:02:29.175Z,46.92
2022-08-23T15:05:31.331Z,57.80
2022-08-23T15:08:33.596Z,42.05
2022-08-23T15:14:57.856Z,27.05
2022-08-23T15:18:03.023Z,34.97
2022-08-23T15:21:05.558Z,35.72
2022-08-23T15:24:08.105Z,55.17
2022-08-23T15:27:10.825Z,35.13
2022-08-23T15:30:15.786Z,36.28
2022-08-23T15:33:20.449Z,45.97
2022-08-23T15:36:24.738Z,38.97
2022-08-23T15:39:27.313Z,31.05
2022-08-23T15:42:29.554Z,41.17
2022-08-23T15:45:33.529Z,30.52
2022-08-23T15:48:49.137Z,24.70
2022-08-23T15:51:51.366Z,35.92
2022-08-23T15:54:54.606Z,29.08
2022-08-23T15:57:59.799Z,26.13
2022-08-23T16:01:01.842Z,16.73
2022-08-23T16:04:04.377Z,27.73
2022-08-23T16:07:08.013Z,28.63
2022-08-23T16:10:12.706Z,38.13
2022-08-23T16:13:15.440Z,14.30
2022-08-23T16:16:23.044Z,35.05
2022-08-23T16:19:26.665Z,34.47
2022-08-23T16:22:30.078Z,35.33
2022-08-23T16:25:32.939Z,37.55
2022-08-23T16:28:35.536Z,23.15
2022-08-23T16:31:41.219Z,40.00
2022-08-23T16:34:49.576Z,25.83
2022-08-23T16:37:56.167Z,13.90
2022-08-23T16:40:58.978Z,30.42
2022-08-23T16:44:01.481Z,24.58
2022-08-23T16:47:06.669Z,28.67
2022-08-23T16:50:10.341Z,34.03
2022-08-23T16:53:13.250Z,41.55
2022-08-23T16:56:19.425Z,37.33
2022-08-23T16:59:22.142Z,30.98
2022-08-23T17:02:37.065Z,25.05
2022-08-23T17:05:39.375Z,40.38
2022-08-23T17:08:41.955Z,22.13
2022-08-23T17:11:45.046Z,33.03
2022-08-23T17:14:52.206Z,26.65
2022-08-23T17:17:54.969Z,21.60
2022-08-23T17:20:57.997Z,37.25
2022-08-23T17:24:00.642Z,16.02
2022-08-23T17:27:03.025Z,43.00
2022-08-23T17:30:06.594Z,21.23
2022-08-23T17:33:10.786Z,25.17
2022-08-23T17:36:27.679Z,22.48
2022-08-23T17:39:29.785Z,31.17
2022-08-23T17:42:32.764Z,30.40
2022-08-23T17:45:44.499Z,38.53
2022-08-23T17:48:46.825Z,36.03
2022-08-23T17:51:49.482Z,16.77
2022-08-23T17:54:51.978Z,33.65
2022-08-23T17:57:57.685Z,27.38
2022-08-23T18:01:06.647Z,35.35
2022-08-23T18:04:08.867Z,32.38
2022-08-23T18:07:11.007Z,33.85
2022-08-23T18:10:13.417Z,46.17
2022-08-23T18:13:15.593Z,40.92
2022-08-23T18:16:18.312Z,36.58
2022-08-23T18:19:21.159Z,27.42
2022-08-23T18:22:23.398Z,35.45
2022-08-23T18:25:26.058Z,30.23
2022-08-23T18:28:28.438Z,30.05
2022-08-23T18:31:32.528Z,34.92
2022-08-23T18:34:36.649Z,31.83
2022-08-23T18:37:38.982Z,35.40
2022-08-23T18:40:46.031Z,47.05
2022-08-23T18:43:48.459Z,15.70
2022-08-23T18:46:51.648Z,22.70
2022-08-23T18:49:53.819Z,22.30
2022-08-23T18:52:56.055Z,24.52
2022-08-23T18:55:58.458Z,17.00
2022-08-23T18:59:01.850Z,30.77
2022-08-23T19:02:04.244Z,34.17
2022-08-23T19:05:07.229Z,31.58
2022-08-23T19:08:10.681Z,31.90
2022-08-23T19:11:13.242Z,25.67
2022-08-23T19:14:15.634Z,37.60
2022-08-23T19:17:17.965Z,30.42
2022-08-23T19:20:21.208Z,26.92
2022-08-23T19:23:23.492Z,36.03
2022-08-23T19:26:31.873Z,34.47
2022-08-23T19:29:34.805Z,39.42
2022-08-23T19:32:39.637Z,17.65
2022-08-23T19:35:42.449Z,36.30
2022-08-23T19:38:44.760Z,25.00
2022-08-23T19:41:48.614Z,32.88
2022-08-23T19:44:50.853Z,28.13
2022-08-23T19:47:54.025Z,48.75
2022-08-23T19:50:56.660Z,41.70
2022-08-23T19:54:11.055Z,18.10
2022-08-23T19:57:13.877Z,31.15
2022-08-23T20:00:19.627Z,32.05
2022-08-23T20:03:22.288Z,43.38
2022-08-23T20:06:24.625Z,25.77
2022-08-23T20:09:29.802Z,26.08
2022-08-23T20:12:33.323Z,39.28
2022-08-23T20:15:35.665Z,34.47
2022-08-23T20:18:37.869Z,30.10
2022-08-23T20:21:41.329Z,26.98
2022-08-23T20:24:51.347Z,55.83
2022-08-23T20:27:54.381Z,25.80
2022-08-23T20:30:56.570Z,52.85
2022-08-23T20:33:59.988Z,53.15
2022-08-23T20:37:03.042Z,49.55
2022-08-23T20:40:10.300Z,65.63
2022-08-23T20:43:12.422Z,41.38
2022-08-23T20:46:15.187Z,40.00
2022-08-23T20:49:17.742Z,46.45
2022-08-23T20:52:19.932Z,38.78
2022-08-23T20:55:22.106Z,32.58
2022-08-23T20:58:24.964Z,47.10
2022-08-23T21:01:27.103Z,48.80
2022-08-23T21:04:30.209Z,29.33
2022-08-23T21:07:32.762Z,29.10
2022-08-23T21:10:35.355Z,44.35
2022-08-23T21:13:41.445Z,29.98
2022-08-23T21:16:43.878Z,43.55
2022-08-23T21:19:46.053Z,57.13
2022-08-23T21:22:48.189Z,27.98
2022-08-23T21:25:57.586Z,30.15
2022-08-23T21:28:59.748Z,49.83
2022-08-23T21:32:02.012Z,35.78
2022-08-23T21:35:04.859Z,32.25
2022-08-23T21:38:07.000Z,35.83
2022-08-23T21:41:12.236Z,54.63
2022-08-23T21:44:17.299Z,32.80
2022-08-23T21:47:20.894Z,39.75
2022-08-23T21:50:24.563Z,46.58
2022-08-23T21:53:31.277Z,40.65
2022-08-23T21:56:33.601Z,43.25
2022-08-23T21:59:35.749Z,42.72
2022-08-23T22:02:37.948Z,42.15
2022-08-23T22:05:42.278Z,26.55
2022-08-23T22:08:45.519Z,38.00
2022-08-23T22:11:49.525Z,41.38
2022-08-23T22:14:51.685Z,42.53
2022-08-23T22:17:53.820Z,27.67
2022-08-23T22:20:57.555Z,44.35
2022-08-23T22:24:00.263Z,32.70
2022-08-23T22:27:02.386Z,31.60
2022-08-23T22:30:05.812Z,31.85
2022-08-23T22:33:07.977Z,34.78
2022-08-23T22:36:13.560Z,35.47
2022-08-23T22:39:15.726Z,12.95
2022-08-23T22:42:17.892Z,30.67
2022-08-23T22:45:20.140Z,18.13
2022-08-23T22:48:22.864Z,25.25
2022-08-23T22:51:31.139Z,10.98
2022-08-23T22:57:35.674Z,18.73
2022-08-23T23:00:44.049Z,22.65
2022-08-23T23:03:46.933Z,17.92
2022-08-23T23:06:51.431Z,12.88
2022-08-23T23:09:53.796Z,19.30
2022-08-23T23:12:56.010Z,13.48
2022-08-23T23:16:02.333Z,12.98
2022-08-23T23:19:23.716Z,4.80
2022-08-23T23:22:25.856Z,9.73
2022-08-23T23:25:28.300Z,15.25
2022-08-23T23:28:34.077Z,9.48
2022-08-23T23:31:37.204Z,6.90
2022-08-23T23:34:39.461Z,10.65
2022-08-23T23:37:41.634Z,10.35
2022-08-23T23:40:43.967Z,8.50
2022-08-23T23:43:46.743Z,9.27
2022-08-23T23:46:49.794Z,10.48
2022-08-23T23:49:52.369Z,4.60
2022-08-23T23:52:55.309Z,7.75
2022-08-23T23:56:01.630Z,4.13
2022-08-23T23:59:03.963Z,3.58
